sensor_id;sensor_type;location;lat;lon;timestamp;temperature;humidity
7317;DHT22;3699;51.462;6.696;2022-08-11T00:00:52;22.40;58.00
7317;DHT22;3699;51.462;6.696;2022-08-11T00:03:19;22.40;58.50
7317;DHT22;3699;51.462;6.696;2022-08-11T00:05:47;22.40;59.30
7317;DHT22;3699;51.462;6.696;2022-08-11T00:08:24;22.30;59.50
7317;DHT22;3699;51.462;6.696;2022-08-11T00:10:53;22.20;59.90
7317;DHT22;3699;51.462;6.696;2022-08-11T00:13:21;22.20;62.40
7317;DHT22;3699;51.462;6.696;2022-08-11T00:15:49;22.10;60.30
7317;DHT22;3699;51.462;6.696;2022-08-11T00:18:17;22.10;60.80
7317;DHT22;3699;51.462;6.696;2022-08-11T00:20:45;22.10;61.60
7317;DHT22;3699;51.462;6.696;2022-08-11T00:23:13;22.10;62.40
7317;DHT22;3699;51.462;6.696;2022-08-11T00:25:43;22.00;63.90
7317;DHT22;3699;51.462;6.696;2022-08-11T00:28:23;22.00;65.80
7317;DHT22;3699;51.462;6.696;2022-08-11T00:30:51;21.90;66.50
7317;DHT22;3699;51.462;6.696;2022-08-11T00:33:22;21.80;67.50
7317;DHT22;3699;51.462;6.696;2022-08-11T00:35:50;21.80;71.50
7317;DHT22;3699;51.462;6.696;2022-08-11T00:38:24;21.70;76.20
7317;DHT22;3699;51.462;6.696;2022-08-11T00:40:56;21.70;79.20
7317;DHT22;3699;51.462;6.696;2022-08-11T00:43:38;21.60;79.90
7317;DHT22;3699;51.462;6.696;2022-08-11T00:46:12;21.50;84.40
7317;DHT22;3699;51.462;6.696;2022-08-11T00:48:54;21.40;90.10
7317;DHT22;3699;51.462;6.696;2022-08-11T00:51:38;21.30;92.90
7317;DHT22;3699;51.462;6.696;2022-08-11T00:54:42;21.20;92.50
7317;DHT22;3699;51.462;6.696;2022-08-11T00:58:08;21.10;95.40
7317;DHT22;3699;51.462;6.696;2022-08-11T01:01:09;21.10;95.50
7317;DHT22;3699;51.462;6.696;2022-08-11T01:04:08;20.90;99.90
7317;DHT22;3699;51.462;6.696;2022-08-11T01:06:54;20.90;99.90
7317;DHT22;3699;51.462;6.696;2022-08-11T01:09:33;20.80;99.90
7317;DHT22;3699;51.462;6.696;2022-08-11T01:12:23;20.80;99.90
7317;DHT22;3699;51.462;6.696;2022-08-11T01:21:17;20.50;99.90
7317;DHT22;3699;51.462;6.696;2022-08-11T01:27:47;20.30;99.90
7317;DHT22;3699;51.462;6.696;2022-08-11T01:34:13;20.20;99.90
7317;DHT22;3699;51.462;6.696;2022-08-11T01:40:34;20.10;99.90
7317;DHT22;3699;51.462;6.696;2022-08-11T01:43:45;20.10;99.90
7317;DHT22;3699;51.462;6.696;2022-08-11T01:46:42;20.10;99.90
7317;DHT22;3699;51.462;6.696;2022-08-11T01:49:14;20.10;99.90
7317;DHT22;3699;51.462;6.696;2022-08-11T01:51:57;20.10;99.90
7317;DHT22;3699;51.462;6.696;2022-08-11T01:54:31;20.10;99.90
7317;DHT22;3699;51.462;6.696;2022-08-11T01:57:15;20.10;99.90
7317;DHT22;3699;51.462;6.696;2022-08-11T01:59:47;20.10;99.90
7317;DHT22;3699;51.462;6.696;2022-08-11T02:02:22;20.10;99.90
7317;DHT22;3699;51.462;6.696;2022-08-11T02:05:19;20.10;99.90
7317;DHT22;3699;51.462;6.696;2022-08-11T02:07:54;20.10;99.90
7317;DHT22;3699;51.462;6.696;2022-08-11T02:10:28;20.10;99.90
7317;DHT22;3699;51.462;6.696;2022-08-11T02:13:21;20.10;99.90
7317;DHT22;3699;51.462;6.696;2022-08-11T02:15:55;20.10;99.90
7317;DHT22;3699;51.462;6.696;2022-08-11T02:18:32;20.10;99.90
7317;DHT22;3699;51.462;6.696;2022-08-11T02:21:15;20.10;99.90
7317;DHT22;3699;51.462;6.696;2022-08-11T02:24:03;20.10;99.90
7317;DHT22;3699;51.462;6.696;2022-08-11T04:11:12;19.10;99.90
7317;DHT22;3699;51.462;6.696;2022-08-11T04:14:09;19.00;99.90
7317;DHT22;3699;51.462;6.696;2022-08-11T04:17:17;19.00;99.90
7317;DHT22;3699;51.462;6.696;2022-08-11T04:20:28;19.00;99.90
7317;DHT22;3699;51.462;6.696;2022-08-11T04:23:12;19.00;99.90
7317;DHT22;3699;51.462;6.696;2022-08-11T04:26:01;19.00;99.90
7317;DHT22;3699;51.462;6.696;2022-08-11T04:28:59;19.10;99.90
7317;DHT22;3699;51.462;6.696;2022-08-11T04:31:37;19.10;99.90
7317;DHT22;3699;51.462;6.696;2022-08-11T04:34:34;19.10;99.90
7317;DHT22;3699;51.462;6.696;2022-08-11T04:43:22;19.10;99.90
7317;DHT22;3699;51.462;6.696;2022-08-11T04:46:26;19.10;99.90
7317;DHT22;3699;51.462;6.696;2022-08-11T04:56:05;19.10;99.90
7317;DHT22;3699;51.462;6.696;2022-08-11T04:59:14;19.10;99.90
7317;DHT22;3699;51.462;6.696;2022-08-11T05:02:42;19.20;99.90
7317;DHT22;3699;51.462;6.696;2022-08-11T05:05:22;19.20;99.90
7317;DHT22;3699;51.462;6.696;2022-08-11T05:14:28;19.40;99.90
7317;DHT22;3699;51.462;6.696;2022-08-11T05:17:15;19.50;99.90
7317;DHT22;3699;51.462;6.696;2022-08-11T05:20:09;19.60;99.90
7317;DHT22;3699;51.462;6.696;2022-08-11T05:25:43;19.90;99.90
7317;DHT22;3699;51.462;6.696;2022-08-11T05:28:32;20.10;99.90
7317;DHT22;3699;51.462;6.696;2022-08-11T05:31:21;20.40;99.90
7317;DHT22;3699;51.462;6.696;2022-08-11T05:34:10;20.60;99.90
7317;DHT22;3699;51.462;6.696;2022-08-11T05:37:00;20.90;99.90
7317;DHT22;3699;51.462;6.696;2022-08-11T05:39:31;21.30;99.90
7317;DHT22;3699;51.462;6.696;2022-08-11T05:42:16;21.40;99.90
7317;DHT22;3699;51.462;6.696;2022-08-11T05:45:10;22.60;99.90
7317;DHT22;3699;51.462;6.696;2022-08-11T05:47:57;23.10;99.90
7317;DHT22;3699;51.462;6.696;2022-08-11T05:50:50;23.20;99.90
7317;DHT22;3699;51.462;6.696;2022-08-11T05:53:35;23.90;94.30
7317;DHT22;3699;51.462;6.696;2022-08-11T05:56:26;23.90;94.30
7317;DHT22;3699;51.462;6.696;2022-08-11T05:58:54;24.60;91.00
7317;DHT22;3699;51.462;6.696;2022-08-11T06:01:23;25.00;84.80
7317;DHT22;3699;51.462;6.696;2022-08-11T06:03:54;25.80;75.40
7317;DHT22;3699;51.462;6.696;2022-08-11T06:06:47;25.80;76.20
7317;DHT22;3699;51.462;6.696;2022-08-11T06:09:23;26.30;71.10
7317;DHT22;3699;51.462;6.696;2022-08-11T06:11:50;26.70;65.00
7317;DHT22;3699;51.462;6.696;2022-08-11T06:14:18;26.90;62.80
7317;DHT22;3699;51.462;6.696;2022-08-11T06:16:48;27.00;65.20
7317;DHT22;3699;51.462;6.696;2022-08-11T06:19:19;27.30;59.70
7317;DHT22;3699;51.462;6.696;2022-08-11T06:21:48;27.90;56.30
7317;DHT22;3699;51.462;6.696;2022-08-11T06:24:16;27.90;56.70
7317;DHT22;3699;51.462;6.696;2022-08-11T06:26:48;28.10;55.50
7317;DHT22;3699;51.462;6.696;2022-08-11T06:29:16;28.40;54.00
7317;DHT22;3699;51.462;6.696;2022-08-11T06:31:50;28.70;52.90
7317;DHT22;3699;51.462;6.696;2022-08-11T06:34:39;28.90;52.40
7317;DHT22;3699;51.462;6.696;2022-08-11T06:37:19;29.00;51.30
7317;DHT22;3699;51.462;6.696;2022-08-11T06:40:02;29.20;50.80
7317;DHT22;3699;51.462;6.696;2022-08-11T06:42:47;29.30;49.40
7317;DHT22;3699;51.462;6.696;2022-08-11T06:45:26;29.60;49.00
7317;DHT22;3699;51.462;6.696;2022-08-11T06:47:53;29.80;47.00
7317;DHT22;3699;51.462;6.696;2022-08-11T06:50:27;29.90;47.00
7317;DHT22;3699;51.462;6.696;2022-08-11T06:53:16;30.00;46.50
7317;DHT22;3699;51.462;6.696;2022-08-11T06:55:45;30.20;46.00
7317;DHT22;3699;51.462;6.696;2022-08-11T06:58:34;30.30;44.30
7317;DHT22;3699;51.462;6.696;2022-08-11T07:01:28;30.40;43.60
7317;DHT22;3699;51.462;6.696;2022-08-11T07:04:03;30.60;42.30
7317;DHT22;3699;51.462;6.696;2022-08-11T07:06:40;30.70;43.10
7317;DHT22;3699;51.462;6.696;2022-08-11T07:09:23;30.80;44.80
7317;DHT22;3699;51.462;6.696;2022-08-11T07:12:30;30.80;42.10
7317;DHT22;3699;51.462;6.696;2022-08-11T07:15:22;30.90;39.90
7317;DHT22;3699;51.462;6.696;2022-08-11T07:18:19;30.90;40.40
7317;DHT22;3699;51.462;6.696;2022-08-11T07:21:12;30.80;41.50
7317;DHT22;3699;51.462;6.696;2022-08-11T07:24:01;30.70;41.80
7317;DHT22;3699;51.462;6.696;2022-08-11T07:26:50;30.70;41.40
7317;DHT22;3699;51.462;6.696;2022-08-11T07:29:36;30.50;43.00
7317;DHT22;3699;51.462;6.696;2022-08-11T07:32:16;30.40;40.60
7317;DHT22;3699;51.462;6.696;2022-08-11T07:34:50;30.40;41.70
7317;DHT22;3699;51.462;6.696;2022-08-11T07:37:22;30.30;41.80
7317;DHT22;3699;51.462;6.696;2022-08-11T07:39:52;30.10;41.80
7317;DHT22;3699;51.462;6.696;2022-08-11T07:42:21;30.00;41.80
7317;DHT22;3699;51.462;6.696;2022-08-11T07:44:49;30.00;42.40
7317;DHT22;3699;51.462;6.696;2022-08-11T07:47:36;29.90;41.40
7317;DHT22;3699;51.462;6.696;2022-08-11T07:50:21;29.80;42.00
7317;DHT22;3699;51.462;6.696;2022-08-11T07:53:07;29.80;41.70
7317;DHT22;3699;51.462;6.696;2022-08-11T07:55:35;29.80;41.40
7317;DHT22;3699;51.462;6.696;2022-08-11T07:58:03;29.80;40.90
7317;DHT22;3699;51.462;6.696;2022-08-11T08:00:50;29.70;42.10
7317;DHT22;3699;51.462;6.696;2022-08-11T08:03:35;29.80;43.70
7317;DHT22;3699;51.462;6.696;2022-08-11T08:06:22;30.00;43.50
7317;DHT22;3699;51.462;6.696;2022-08-11T08:09:07;30.20;40.60
7317;DHT22;3699;51.462;6.696;2022-08-11T08:11:53;30.10;39.60
7317;DHT22;3699;51.462;6.696;2022-08-11T08:14:38;30.30;39.00
7317;DHT22;3699;51.462;6.696;2022-08-11T08:17:23;30.40;42.30
7317;DHT22;3699;51.462;6.696;2022-08-11T08:20:11;30.70;39.90
7317;DHT22;3699;51.462;6.696;2022-08-11T08:22:39;30.90;39.90
7317;DHT22;3699;51.462;6.696;2022-08-11T08:25:07;31.00;40.60
7317;DHT22;3699;51.462;6.696;2022-08-11T08:27:35;31.20;39.00
7317;DHT22;3699;51.462;6.696;2022-08-11T08:30:05;31.30;39.60
7317;DHT22;3699;51.462;6.696;2022-08-11T08:32:50;31.40;37.80
7317;DHT22;3699;51.462;6.696;2022-08-11T08:35:18;31.60;37.90
7317;DHT22;3699;51.462;6.696;2022-08-11T08:37:45;31.70;36.80
7317;DHT22;3699;51.462;6.696;2022-08-11T08:40:12;31.50;36.30
7317;DHT22;3699;51.462;6.696;2022-08-11T08:42:45;31.50;37.30
7317;DHT22;3699;51.462;6.696;2022-08-11T08:45:16;31.60;36.30
7317;DHT22;3699;51.462;6.696;2022-08-11T08:47:45;31.60;36.50
7317;DHT22;3699;51.462;6.696;2022-08-11T08:50:14;31.70;35.80
7317;DHT22;3699;51.462;6.696;2022-08-11T08:52:49;31.80;35.80
7317;DHT22;3699;51.462;6.696;2022-08-11T08:55:19;31.80;35.20
7317;DHT22;3699;51.462;6.696;2022-08-11T08:57:49;31.90;35.40
7317;DHT22;3699;51.462;6.696;2022-08-11T09:00:18;31.90;37.20
7317;DHT22;3699;51.462;6.696;2022-08-11T09:02:47;32.20;38.50
7317;DHT22;3699;51.462;6.696;2022-08-11T09:05:16;32.50;33.10
7317;DHT22;3699;51.462;6.696;2022-08-11T09:07:43;32.40;33.50
7317;DHT22;3699;51.462;6.696;2022-08-11T09:10:13;32.60;34.00
7317;DHT22;3699;51.462;6.696;2022-08-11T09:12:42;32.60;33.40
7317;DHT22;3699;51.462;6.696;2022-08-11T09:15:12;32.60;32.30
7317;DHT22;3699;51.462;6.696;2022-08-11T09:17:43;32.50;33.60
7317;DHT22;3699;51.462;6.696;2022-08-11T09:20:14;32.60;36.30
7317;DHT22;3699;51.462;6.696;2022-08-11T09:22:43;32.90;37.80
7317;DHT22;3699;51.462;6.696;2022-08-11T09:25:31;33.10;34.30
7317;DHT22;3699;51.462;6.696;2022-08-11T09:28:17;33.30;33.90
7317;DHT22;3699;51.462;6.696;2022-08-11T09:30:47;33.40;36.10
7317;DHT22;3699;51.462;6.696;2022-08-11T09:33:18;33.40;31.80
7317;DHT22;3699;51.462;6.696;2022-08-11T09:35:46;33.40;31.40
7317;DHT22;3699;51.462;6.696;2022-08-11T09:38:16;33.40;34.30
7317;DHT22;3699;51.462;6.696;2022-08-11T09:41:03;33.60;34.00
7317;DHT22;3699;51.462;6.696;2022-08-11T09:43:31;33.80;33.40
7317;DHT22;3699;51.462;6.696;2022-08-11T09:46:22;34.00;30.50
7317;DHT22;3699;51.462;6.696;2022-08-11T09:48:51;33.90;30.90
7317;DHT22;3699;51.462;6.696;2022-08-11T09:51:22;34.00;29.50
7317;DHT22;3699;51.462;6.696;2022-08-11T09:53:49;33.90;30.50
7317;DHT22;3699;51.462;6.696;2022-08-11T09:56:19;34.00;32.10
7317;DHT22;3699;51.462;6.696;2022-08-11T09:59:04;34.10;32.70
7317;DHT22;3699;51.462;6.696;2022-08-11T10:01:36;34.30;32.50
7317;DHT22;3699;51.462;6.696;2022-08-11T10:04:11;34.40;33.50
7317;DHT22;3699;51.462;6.696;2022-08-11T10:06:42;34.40;28.60
7317;DHT22;3699;51.462;6.696;2022-08-11T10:09:27;34.30;28.60
7317;DHT22;3699;51.462;6.696;2022-08-11T10:11:57;34.00;28.70
7317;DHT22;3699;51.462;6.696;2022-08-11T10:14:25;33.90;29.70
7317;DHT22;3699;51.462;6.696;2022-08-11T10:17:12;33.90;28.90
7317;DHT22;3699;51.462;6.696;2022-08-11T10:19:42;33.90;29.00
7317;DHT22;3699;51.462;6.696;2022-08-11T10:22:10;33.70;28.60
7317;DHT22;3699;51.462;6.696;2022-08-11T10:24:55;33.70;30.00
7317;DHT22;3699;51.462;6.696;2022-08-11T10:27:42;33.70;29.10
7317;DHT22;3699;51.462;6.696;2022-08-11T10:30:10;33.70;28.30
7317;DHT22;3699;51.462;6.696;2022-08-11T10:32:56;33.80;29.80
7317;DHT22;3699;51.462;6.696;2022-08-11T10:35:42;33.80;28.50
7317;DHT22;3699;51.462;6.696;2022-08-11T10:38:12;33.80;27.50
7317;DHT22;3699;51.462;6.696;2022-08-11T10:40:44;33.70;27.10
7317;DHT22;3699;51.462;6.696;2022-08-11T10:43:12;33.70;27.60
7317;DHT22;3699;51.462;6.696;2022-08-11T10:45:41;33.60;27.30
7317;DHT22;3699;51.462;6.696;2022-08-11T10:48:28;33.60;27.40
7317;DHT22;3699;51.462;6.696;2022-08-11T10:50:56;33.60;27.70
7317;DHT22;3699;51.462;6.696;2022-08-11T10:53:41;33.60;27.20
7317;DHT22;3699;51.462;6.696;2022-08-11T10:56:28;33.40;26.40
7317;DHT22;3699;51.462;6.696;2022-08-11T10:59:13;33.40;26.90
7317;DHT22;3699;51.462;6.696;2022-08-11T11:01:42;33.20;27.80
7317;DHT22;3699;51.462;6.696;2022-08-11T11:04:14;33.20;27.80
7317;DHT22;3699;51.462;6.696;2022-08-11T11:06:49;33.20;26.50
7317;DHT22;3699;51.462;6.696;2022-08-11T11:09:19;33.10;26.90
7317;DHT22;3699;51.462;6.696;2022-08-11T11:11:52;33.10;27.30
7317;DHT22;3699;51.462;6.696;2022-08-11T11:14:37;33.00;28.20
7317;DHT22;3699;51.462;6.696;2022-08-11T11:17:27;33.00;27.50
7317;DHT22;3699;51.462;6.696;2022-08-11T11:20:16;33.00;27.50
7317;DHT22;3699;51.462;6.696;2022-08-11T11:22:44;33.10;27.00
7317;DHT22;3699;51.462;6.696;2022-08-11T11:25:28;33.00;26.90
7317;DHT22;3699;51.462;6.696;2022-08-11T11:28:23;33.10;29.30
7317;DHT22;3699;51.462;6.696;2022-08-11T11:31:04;33.00;26.90
7317;DHT22;3699;51.462;6.696;2022-08-11T11:33:45;33.00;27.20
7317;DHT22;3699;51.462;6.696;2022-08-11T11:36:24;32.80;26.90
7317;DHT22;3699;51.462;6.696;2022-08-11T11:38:54;32.80;27.50
7317;DHT22;3699;51.462;6.696;2022-08-11T11:41:22;32.80;27.30
7317;DHT22;3699;51.462;6.696;2022-08-11T11:43:54;32.90;27.20
7317;DHT22;3699;51.462;6.696;2022-08-11T11:46:23;32.90;27.30
7317;DHT22;3699;51.462;6.696;2022-08-11T11:48:52;32.90;27.20
7317;DHT22;3699;51.462;6.696;2022-08-11T11:51:21;32.80;27.40
7317;DHT22;3699;51.462;6.696;2022-08-11T11:53:50;32.90;27.90
7317;DHT22;3699;51.462;6.696;2022-08-11T11:56:18;32.90;27.10
7317;DHT22;3699;51.462;6.696;2022-08-11T11:58:47;32.90;27.60
7317;DHT22;3699;51.462;6.696;2022-08-11T12:01:32;33.00;27.20
7317;DHT22;3699;51.462;6.696;2022-08-11T12:04:00;33.10;28.90
7317;DHT22;3699;51.462;6.696;2022-08-11T12:06:32;33.30;28.30
7317;DHT22;3699;51.462;6.696;2022-08-11T12:08:59;33.40;26.90
7317;DHT22;3699;51.462;6.696;2022-08-11T12:11:27;33.50;26.60
7317;DHT22;3699;51.462;6.696;2022-08-11T12:14:15;33.40;26.40
7317;DHT22;3699;51.462;6.696;2022-08-11T12:16:44;33.40;28.40
7317;DHT22;3699;51.462;6.696;2022-08-11T12:19:12;33.40;26.60
7317;DHT22;3699;51.462;6.696;2022-08-11T12:21:41;33.50;28.50
7317;DHT22;3699;51.462;6.696;2022-08-11T12:24:23;33.50;26.80
7317;DHT22;3699;51.462;6.696;2022-08-11T12:27:07;33.60;27.20
7317;DHT22;3699;51.462;6.696;2022-08-11T12:29:48;33.60;26.90
7317;DHT22;3699;51.462;6.696;2022-08-11T12:32:16;33.70;26.20
7317;DHT22;3699;51.462;6.696;2022-08-11T12:34:43;33.60;25.70
7317;DHT22;3699;51.462;6.696;2022-08-11T12:37:12;33.60;26.10
7317;DHT22;3699;51.462;6.696;2022-08-11T12:39:45;33.60;26.80
7317;DHT22;3699;51.462;6.696;2022-08-11T12:42:32;33.40;26.30
7317;DHT22;3699;51.462;6.696;2022-08-11T12:45:18;33.30;25.90
7317;DHT22;3699;51.462;6.696;2022-08-11T12:48:01;33.10;25.90
7317;DHT22;3699;51.462;6.696;2022-08-11T12:50:49;33.10;26.40
7317;DHT22;3699;51.462;6.696;2022-08-11T12:53:39;33.10;26.00
7317;DHT22;3699;51.462;6.696;2022-08-11T12:56:08;33.20;26.80
7317;DHT22;3699;51.462;6.696;2022-08-11T12:58:53;33.20;26.20
7317;DHT22;3699;51.462;6.696;2022-08-11T13:01:39;33.20;26.90
7317;DHT22;3699;51.462;6.696;2022-08-11T13:04:24;33.30;26.40
7317;DHT22;3699;51.462;6.696;2022-08-11T13:07:10;33.30;26.60
7317;DHT22;3699;51.462;6.696;2022-08-11T13:09:40;33.30;26.10
7317;DHT22;3699;51.462;6.696;2022-08-11T13:12:08;33.30;25.10
7317;DHT22;3699;51.462;6.696;2022-08-11T13:14:52;33.30;25.90
7317;DHT22;3699;51.462;6.696;2022-08-11T13:17:20;33.30;25.60
7317;DHT22;3699;51.462;6.696;2022-08-11T13:19:49;33.30;25.80
7317;DHT22;3699;51.462;6.696;2022-08-11T13:22:18;33.30;26.00
7317;DHT22;3699;51.462;6.696;2022-08-11T13:24:48;33.30;26.10
7317;DHT22;3699;51.462;6.696;2022-08-11T13:27:17;33.30;26.30
7317;DHT22;3699;51.462;6.696;2022-08-11T13:29:45;33.30;26.00
7317;DHT22;3699;51.462;6.696;2022-08-11T13:32:13;33.40;26.30
7317;DHT22;3699;51.462;6.696;2022-08-11T13:34:42;33.30;26.30
7317;DHT22;3699;51.462;6.696;2022-08-11T13:37:09;33.40;26.30
7317;DHT22;3699;51.462;6.696;2022-08-11T13:39:41;33.40;25.90
7317;DHT22;3699;51.462;6.696;2022-08-11T13:42:14;33.30;25.90
7317;DHT22;3699;51.462;6.696;2022-08-11T13:44:45;33.30;26.30
7317;DHT22;3699;51.462;6.696;2022-08-11T13:47:12;33.30;25.80
7317;DHT22;3699;51.462;6.696;2022-08-11T13:49:40;33.30;25.70
7317;DHT22;3699;51.462;6.696;2022-08-11T13:52:10;33.30;25.90
7317;DHT22;3699;51.462;6.696;2022-08-11T13:54:40;33.40;26.40
7317;DHT22;3699;51.462;6.696;2022-08-11T13:57:08;33.50;26.00
7317;DHT22;3699;51.462;6.696;2022-08-11T13:59:38;33.40;25.80
7317;DHT22;3699;51.462;6.696;2022-08-11T14:02:07;33.40;26.70
7317;DHT22;3699;51.462;6.696;2022-08-11T14:04:40;33.40;25.90
7317;DHT22;3699;51.462;6.696;2022-08-11T14:07:09;33.40;26.70
7317;DHT22;3699;51.462;6.696;2022-08-11T14:09:41;33.40;26.20
7317;DHT22;3699;51.462;6.696;2022-08-11T14:12:13;33.40;25.40
7317;DHT22;3699;51.462;6.696;2022-08-11T14:15:02;33.30;24.90
7317;DHT22;3699;51.462;6.696;2022-08-11T14:17:32;33.10;25.30
7317;DHT22;3699;51.462;6.696;2022-08-11T14:20:03;33.10;25.20
7317;DHT22;3699;51.462;6.696;2022-08-11T14:22:31;33.00;25.10
7317;DHT22;3699;51.462;6.696;2022-08-11T14:24:57;33.00;25.90
7317;DHT22;3699;51.462;6.696;2022-08-11T14:27:25;32.80;26.00
7317;DHT22;3699;51.462;6.696;2022-08-11T14:29:56;32.70;25.50
7317;DHT22;3699;51.462;6.696;2022-08-11T14:32:25;32.70;25.60
7317;DHT22;3699;51.462;6.696;2022-08-11T14:34:52;32.70;26.00
7317;DHT22;3699;51.462;6.696;2022-08-11T14:37:21;32.60;25.70
7317;DHT22;3699;51.462;6.696;2022-08-11T14:39:50;32.60;25.50
7317;DHT22;3699;51.462;6.696;2022-08-11T14:42:19;32.50;26.20
7317;DHT22;3699;51.462;6.696;2022-08-11T14:45:06;32.60;26.30
7317;DHT22;3699;51.462;6.696;2022-08-11T14:48:08;32.60;26.20
7317;DHT22;3699;51.462;6.696;2022-08-11T14:50:35;32.50;26.30
7317;DHT22;3699;51.462;6.696;2022-08-11T14:53:05;32.50;26.30
7317;DHT22;3699;51.462;6.696;2022-08-11T14:55:36;32.50;26.40
7317;DHT22;3699;51.462;6.696;2022-08-11T14:58:27;32.50;26.80
7317;DHT22;3699;51.462;6.696;2022-08-11T15:00:56;32.60;27.30
7317;DHT22;3699;51.462;6.696;2022-08-11T15:03:26;32.50;27.40
7317;DHT22;3699;51.462;6.696;2022-08-11T15:05:55;32.50;27.10
7317;DHT22;3699;51.462;6.696;2022-08-11T15:08:23;32.30;26.70
7317;DHT22;3699;51.462;6.696;2022-08-11T15:11:11;32.30;27.10
7317;DHT22;3699;51.462;6.696;2022-08-11T15:13:53;32.30;27.80
7317;DHT22;3699;51.462;6.696;2022-08-11T15:16:21;32.30;27.50
7317;DHT22;3699;51.462;6.696;2022-08-11T15:19:07;32.30;27.40
7317;DHT22;3699;51.462;6.696;2022-08-11T15:21:34;32.40;27.50
7317;DHT22;3699;51.462;6.696;2022-08-11T15:24:18;32.40;27.30
7317;DHT22;3699;51.462;6.696;2022-08-11T15:26:45;32.30;27.00
7317;DHT22;3699;51.462;6.696;2022-08-11T15:29:32;32.20;26.70
7317;DHT22;3699;51.462;6.696;2022-08-11T15:32:19;32.10;26.80
7317;DHT22;3699;51.462;6.696;2022-08-11T15:35:06;32.10;27.20
7317;DHT22;3699;51.462;6.696;2022-08-11T15:37:54;32.00;27.00
7317;DHT22;3699;51.462;6.696;2022-08-11T15:40:24;32.00;27.00
7317;DHT22;3699;51.462;6.696;2022-08-11T15:43:13;32.00;26.70
7317;DHT22;3699;51.462;6.696;2022-08-11T15:46:10;31.90;25.80
7317;DHT22;3699;51.462;6.696;2022-08-11T15:48:42;31.80;25.60
7317;DHT22;3699;51.462;6.696;2022-08-11T15:51:16;31.80;25.70
7317;DHT22;3699;51.462;6.696;2022-08-11T15:53:51;31.80;25.60
7317;DHT22;3699;51.462;6.696;2022-08-11T15:56:19;31.90;25.80
7317;DHT22;3699;51.462;6.696;2022-08-11T15:58:50;32.00;26.10
7317;DHT22;3699;51.462;6.696;2022-08-11T16:01:38;31.90;25.90
7317;DHT22;3699;51.462;6.696;2022-08-11T16:04:25;31.90;26.30
7317;DHT22;3699;51.462;6.696;2022-08-11T16:06:58;31.80;26.20
7317;DHT22;3699;51.462;6.696;2022-08-11T16:09:30;31.80;26.40
7317;DHT22;3699;51.462;6.696;2022-08-11T16:12:01;31.70;26.60
7317;DHT22;3699;51.462;6.696;2022-08-11T16:14:32;31.60;26.40
7317;DHT22;3699;51.462;6.696;2022-08-11T16:17:18;31.50;25.70
7317;DHT22;3699;51.462;6.696;2022-08-11T16:19:48;31.50;26.20
7317;DHT22;3699;51.462;6.696;2022-08-11T16:22:22;31.50;26.20
7317;DHT22;3699;51.462;6.696;2022-08-11T16:25:00;31.50;26.40
7317;DHT22;3699;51.462;6.696;2022-08-11T16:27:27;31.50;26.00
7317;DHT22;3699;51.462;6.696;2022-08-11T16:29:59;31.50;26.10
7317;DHT22;3699;51.462;6.696;2022-08-11T16:32:30;31.50;26.20
7317;DHT22;3699;51.462;6.696;2022-08-11T16:35:00;31.50;26.40
7317;DHT22;3699;51.462;6.696;2022-08-11T16:37:46;31.40;26.80
7317;DHT22;3699;51.462;6.696;2022-08-11T16:40:29;31.40;27.20
7317;DHT22;3699;51.462;6.696;2022-08-11T16:42:58;31.30;26.80
7317;DHT22;3699;51.462;6.696;2022-08-11T16:45:43;31.20;26.50
7317;DHT22;3699;51.462;6.696;2022-08-11T16:48:31;31.20;26.80
7317;DHT22;3699;51.462;6.696;2022-08-11T16:50:59;31.20;27.00
7317;DHT22;3699;51.462;6.696;2022-08-11T16:53:29;31.10;26.80
7317;DHT22;3699;51.462;6.696;2022-08-11T16:55:58;31.10;26.90
7317;DHT22;3699;51.462;6.696;2022-08-11T16:58:29;31.10;26.80
7317;DHT22;3699;51.462;6.696;2022-08-11T17:01:15;31.00;27.00
7317;DHT22;3699;51.462;6.696;2022-08-11T17:03:57;30.90;26.70
7317;DHT22;3699;51.462;6.696;2022-08-11T17:06:45;30.90;26.80
7317;DHT22;3699;51.462;6.696;2022-08-11T17:09:34;30.80;26.80
7317;DHT22;3699;51.462;6.696;2022-08-11T17:12:21;30.70;26.80
7317;DHT22;3699;51.462;6.696;2022-08-11T17:15:09;30.70;27.20
7317;DHT22;3699;51.462;6.696;2022-08-11T17:17:57;30.70;27.20
7317;DHT22;3699;51.462;6.696;2022-08-11T17:20:26;30.60;26.60
7317;DHT22;3699;51.462;6.696;2022-08-11T17:22:54;30.60;27.00
7317;DHT22;3699;51.462;6.696;2022-08-11T17:25:41;30.60;27.00
7317;DHT22;3699;51.462;6.696;2022-08-11T17:28:09;30.50;26.80
7317;DHT22;3699;51.462;6.696;2022-08-11T17:30:38;30.40;26.60
7317;DHT22;3699;51.462;6.696;2022-08-11T17:33:23;30.40;26.70
7317;DHT22;3699;51.462;6.696;2022-08-11T17:36:08;30.30;26.20
7317;DHT22;3699;51.462;6.696;2022-08-11T17:38:36;30.30;26.70
7317;DHT22;3699;51.462;6.696;2022-08-11T17:41:06;30.30;26.40
7317;DHT22;3699;51.462;6.696;2022-08-11T17:43:52;30.20;26.60
7317;DHT22;3699;51.462;6.696;2022-08-11T17:46:38;30.10;26.50
7317;DHT22;3699;51.462;6.696;2022-08-11T17:49:29;29.90;26.80
7317;DHT22;3699;51.462;6.696;2022-08-11T17:52:02;30.10;27.00
7317;DHT22;3699;51.462;6.696;2022-08-11T17:54:50;29.90;26.70
7317;DHT22;3699;51.462;6.696;2022-08-11T17:57:37;29.90;27.20
7317;DHT22;3699;51.462;6.696;2022-08-11T18:00:23;29.80;27.30
7317;DHT22;3699;51.462;6.696;2022-08-11T18:02:52;29.90;27.40
7317;DHT22;3699;51.462;6.696;2022-08-11T18:05:40;29.80;27.40
7317;DHT22;3699;51.462;6.696;2022-08-11T18:08:10;29.80;28.00
7317;DHT22;3699;51.462;6.696;2022-08-11T18:10:55;29.70;27.60
7317;DHT22;3699;51.462;6.696;2022-08-11T18:13:42;29.50;27.50
7317;DHT22;3699;51.462;6.696;2022-08-11T18:16:27;29.60;28.10
7317;DHT22;3699;51.462;6.696;2022-08-11T18:19:12;29.50;28.20
7317;DHT22;3699;51.462;6.696;2022-08-11T18:22:02;29.30;27.90
7317;DHT22;3699;51.462;6.696;2022-08-11T18:24:51;29.40;28.10
7317;DHT22;3699;51.462;6.696;2022-08-11T18:27:39;29.30;28.60
7317;DHT22;3699;51.462;6.696;2022-08-11T18:30:27;29.20;29.00
7317;DHT22;3699;51.462;6.696;2022-08-11T18:33:15;29.10;29.10
7317;DHT22;3699;51.462;6.696;2022-08-11T18:36:00;29.10;29.70
7317;DHT22;3699;51.462;6.696;2022-08-11T18:38:46;28.80;29.50
7317;DHT22;3699;51.462;6.696;2022-08-11T18:41:35;28.80;29.30
7317;DHT22;3699;51.462;6.696;2022-08-11T18:44:25;28.70;29.30
7317;DHT22;3699;51.462;6.696;2022-08-11T18:47:13;28.80;29.60
7317;DHT22;3699;51.462;6.696;2022-08-11T18:49:59;28.60;29.50
7317;DHT22;3699;51.462;6.696;2022-08-11T18:52:49;28.50;29.70
7317;DHT22;3699;51.462;6.696;2022-08-11T18:55:34;28.50;29.60
7317;DHT22;3699;51.462;6.696;2022-08-11T18:58:22;28.40;29.60
7317;DHT22;3699;51.462;6.696;2022-08-11T19:01:08;28.40;29.90
7317;DHT22;3699;51.462;6.696;2022-08-11T19:03:58;28.30;30.60
7317;DHT22;3699;51.462;6.696;2022-08-11T19:06:45;28.20;30.00
7317;DHT22;3699;51.462;6.696;2022-08-11T19:09:31;28.10;30.60
7317;DHT22;3699;51.462;6.696;2022-08-11T19:12:19;28.00;31.00
7317;DHT22;3699;51.462;6.696;2022-08-11T19:15:05;27.90;31.00
7317;DHT22;3699;51.462;6.696;2022-08-11T19:17:51;27.80;31.90
7317;DHT22;3699;51.462;6.696;2022-08-11T19:20:41;27.70;33.20
7317;DHT22;3699;51.462;6.696;2022-08-11T19:23:29;27.60;33.40
7317;DHT22;3699;51.462;6.696;2022-08-11T19:26:16;27.50;34.00
7317;DHT22;3699;51.462;6.696;2022-08-11T19:29:02;27.30;33.30
7317;DHT22;3699;51.462;6.696;2022-08-11T19:31:47;27.20;34.60
7317;DHT22;3699;51.462;6.696;2022-08-11T19:34:32;27.10;36.10
7317;DHT22;3699;51.462;6.696;2022-08-11T19:37:17;27.00;33.90
7317;DHT22;3699;51.462;6.696;2022-08-11T19:40:06;26.90;35.50